createdAt,value
2019-02-19T00:02:11.238Z,51.20
2019-02-19T00:07:15.433Z,51.10
2019-02-19T00:12:19.519Z,50.80
2019-02-19T00:17:24.484Z,50.70
2019-02-19T00:22:30.025Z,50.50
2019-02-19T00:27:35.057Z,50.30
2019-02-19T00:32:40.263Z,50.10
2019-02-19T00:37:45.469Z,49.90
2019-02-19T00:42:50.417Z,49.90
2019-02-19T00:47:55.793Z,49.70
2019-02-19T00:53:00.958Z,49.70
2019-02-19T00:58:05.964Z,49.60
2019-02-19T01:03:10.923Z,49.60
2019-02-19T01:08:17.273Z,49.80
2019-02-19T01:13:22.349Z,50.00
2019-02-19T01:18:27.681Z,50.20
2019-02-19T01:23:32.980Z,49.90
2019-02-19T01:28:38.211Z,50.10
2019-02-19T01:33:43.199Z,49.90
2019-02-19T01:38:48.298Z,50.00
2019-02-19T01:43:53.413Z,49.90
2019-02-19T01:48:58.433Z,49.90
2019-02-19T01:54:22.751Z,50.00
2019-02-19T01:59:26.029Z,49.20
2019-02-19T02:04:31.057Z,49.30
2019-02-19T02:09:37.096Z,49.30
2019-02-19T02:14:42.111Z,48.70
2019-02-19T02:19:46.569Z,48.80
2019-02-19T02:24:51.335Z,49.10
2019-02-19T02:29:56.378Z,49.40
2019-02-19T02:35:01.291Z,49.80
2019-02-19T02:40:06.717Z,50.10
2019-02-19T02:45:11.911Z,50.30
2019-02-19T02:50:17.051Z,50.90
2019-02-19T02:55:21.975Z,50.40
2019-02-19T03:00:26.803Z,51.60
2019-02-19T03:05:32.001Z,51.40
2019-02-19T03:10:38.182Z,51.70
2019-02-19T03:15:43.214Z,52.20
2019-02-19T03:20:48.275Z,52.30
2019-02-19T03:25:52.270Z,52.30
2019-02-19T03:30:56.311Z,52.20
2019-02-19T03:35:59.928Z,52.60
2019-02-19T03:41:03.553Z,52.90
2019-02-19T03:46:11.993Z,53.50
2019-02-19T03:51:15.288Z,53.70
2019-02-19T03:56:19.903Z,53.60
2019-02-19T04:01:24.039Z,53.30
2019-02-19T04:06:28.237Z,53.80
2019-02-19T04:11:32.536Z,53.80
2019-02-19T04:16:36.722Z,54.00
2019-02-19T04:21:40.673Z,54.10
2019-02-19T04:26:45.857Z,54.10
2019-02-19T04:31:49.852Z,54.30
2019-02-19T04:36:53.764Z,54.60
2019-02-19T04:41:57.720Z,54.90
2019-02-19T04:47:01.635Z,55.10
2019-02-19T04:52:08.391Z,54.80
2019-02-19T04:57:12.670Z,55.00
2019-02-19T05:02:18.293Z,55.40
2019-02-19T05:07:23.859Z,55.60
2019-02-19T05:12:30.282Z,55.40
2019-02-19T05:17:35.688Z,55.50
2019-02-19T05:22:40.885Z,55.10
2019-02-19T05:27:46.171Z,55.20
2019-02-19T05:32:51.310Z,55.10
2019-02-19T05:37:56.666Z,55.00
2019-02-19T05:43:01.704Z,55.10
2019-02-19T05:48:06.932Z,55.00
2019-02-19T05:53:12.213Z,55.40
2019-02-19T05:58:17.542Z,54.30
2019-02-19T06:03:22.712Z,53.80
2019-02-19T06:08:31.774Z,53.90
2019-02-19T06:13:37.714Z,53.40
2019-02-19T06:18:46.040Z,53.10
2019-02-19T06:23:52.673Z,52.90
2019-02-19T06:28:58.354Z,52.60
2019-02-19T06:34:04.656Z,52.50
2019-02-19T06:39:10.299Z,52.20
2019-02-19T06:44:15.564Z,51.90
2019-02-19T06:49:21.481Z,52.10
2019-02-19T06:54:26.570Z,52.20
2019-02-19T06:59:31.892Z,52.40
2019-02-19T07:04:48.128Z,52.40
2019-02-19T07:09:54.478Z,52.60
2019-02-19T07:15:00.854Z,52.70
2019-02-19T07:20:07.402Z,52.60
2019-02-19T07:25:12.715Z,52.90
2019-02-19T07:30:18.685Z,53.40
2019-02-19T07:35:23.665Z,53.70
2019-02-19T07:40:29.115Z,53.90
2019-02-19T07:45:33.219Z,53.90
2019-02-19T07:50:39.173Z,54.00
2019-02-19T07:55:45.314Z,54.20
2019-02-19T08:00:50.560Z,54.60
2019-02-19T08:05:55.886Z,54.60
2019-02-19T08:11:00.199Z,55.30
2019-02-19T08:16:04.626Z,55.70
2019-02-19T08:21:09.056Z,56.00
2019-02-19T08:26:12.556Z,55.90
2019-02-19T08:31:17.688Z,56.20
2019-02-19T08:36:21.952Z,56.20
2019-02-19T08:41:26.125Z,56.70
2019-02-19T08:46:30.224Z,57.50
2019-02-19T08:51:36.169Z,58.90
2019-02-19T08:56:40.465Z,58.80
2019-02-19T09:01:45.675Z,59.70
2019-02-19T09:06:51.048Z,59.30
2019-02-19T09:11:56.401Z,59.80
2019-02-19T09:17:00.620Z,60.70
2019-02-19T09:22:24.675Z,60.90
2019-02-19T09:27:29.964Z,61.80
2019-02-19T09:32:34.079Z,62.50
2019-02-19T09:37:39.343Z,62.70
2019-02-19T09:42:44.510Z,63.40
2019-02-19T09:47:49.543Z,63.10
2019-02-19T09:53:00.073Z,63.80
2019-02-19T09:58:01.833Z,63.40
2019-02-19T10:03:07.619Z,63.50
2019-02-19T10:08:13.095Z,63.40
2019-02-19T10:13:20.553Z,63.30
2019-02-19T10:18:26.567Z,63.00
2019-02-19T10:23:31.876Z,63.00
2019-02-19T10:28:37.595Z,63.50
2019-02-19T10:33:42.484Z,64.00
2019-02-19T10:38:47.926Z,65.10
2019-02-19T10:43:53.398Z,65.60
2019-02-19T10:48:58.333Z,66.90
2019-02-19T10:54:03.921Z,67.50
2019-02-19T10:59:09.585Z,67.40
2019-02-19T11:04:14.659Z,68.00
2019-02-19T11:09:20.019Z,68.10
2019-02-19T11:14:26.646Z,69.40
2019-02-19T11:19:32.171Z,69.20
2019-02-19T11:24:38.370Z,69.10
2019-02-19T11:29:43.931Z,69.60
2019-02-19T11:34:49.049Z,68.50
2019-02-19T11:39:54.243Z,67.50
2019-02-19T11:44:59.621Z,66.20
2019-02-19T11:50:05.321Z,65.80
2019-02-19T11:55:11.904Z,64.00
2019-02-19T12:00:21.720Z,63.70
2019-02-19T12:05:28.053Z,65.30
2019-02-19T12:10:33.349Z,64.20
2019-02-19T12:15:38.988Z,64.30
2019-02-19T12:20:42.759Z,63.50
2019-02-19T12:25:46.383Z,64.00
2019-02-19T12:30:51.117Z,63.30
2019-02-19T12:35:56.314Z,63.60
2019-02-19T12:41:01.407Z,65.40
2019-02-19T12:46:05.618Z,64.40
2019-02-19T12:51:09.905Z,64.30
2019-02-19T12:56:14.337Z,62.30
2019-02-19T13:01:17.648Z,63.10
2019-02-19T13:06:21.099Z,61.90
2019-02-19T13:11:25.493Z,61.00
2019-02-19T13:16:29.775Z,59.60
2019-02-19T13:21:33.823Z,60.00
2019-02-19T13:26:37.744Z,59.70
2019-02-19T13:31:42.538Z,60.10
2019-02-19T13:36:47.815Z,59.50
2019-02-19T13:41:53.013Z,59.10
2019-02-19T13:46:58.317Z,56.30
2019-02-19T13:52:10.461Z,57.80
2019-02-19T13:57:14.775Z,55.90
2019-02-19T14:02:19.051Z,55.30
2019-02-19T14:07:25.983Z,53.90
2019-02-19T14:12:31.189Z,52.80
2019-02-19T14:17:36.571Z,52.60
2019-02-19T14:23:07.923Z,52.00
2019-02-19T14:28:36.982Z,51.80
2019-02-19T14:34:06.342Z,51.10
2019-02-19T14:39:34.447Z,49.90
2019-02-19T14:44:53.331Z,50.30
2019-02-19T14:50:10.271Z,49.70
2019-02-19T14:55:28.174Z,48.90
2019-02-19T15:01:09.213Z,47.60
2019-02-19T15:06:30.917Z,47.40
2019-02-19T15:11:55.717Z,48.40
2019-02-19T15:17:21.035Z,47.20
2019-02-19T15:22:44.839Z,47.20
2019-02-19T15:28:14.185Z,47.90
2019-02-19T15:33:48.872Z,47.40
2019-02-19T15:39:27.865Z,45.20
2019-02-19T15:44:53.825Z,46.60
2019-02-19T15:50:19.431Z,46.30
2019-02-19T15:55:44.623Z,47.00
2019-02-19T16:01:10.069Z,47.10
2019-02-19T16:06:39.863Z,47.20
2019-02-19T16:12:08.399Z,47.40
2019-02-19T16:17:32.541Z,47.80
2019-02-19T16:22:52.801Z,47.40
2019-02-19T16:28:25.560Z,47.50
2019-02-19T16:34:06.911Z,47.60
2019-02-19T16:39:43.089Z,47.20
2019-02-19T16:45:08.541Z,47.10
2019-02-19T16:50:34.333Z,47.30
2019-02-19T16:56:14.541Z,47.50
2019-02-19T17:01:46.467Z,48.10
2019-02-19T17:07:15.472Z,49.10
2019-02-19T17:12:40.070Z,49.20
2019-02-19T17:18:12.542Z,49.40
2019-02-19T17:23:35.300Z,49.10
2019-02-19T17:29:08.951Z,49.60
2019-02-19T17:34:55.084Z,50.10
2019-02-19T17:40:16.141Z,51.10
2019-02-19T17:45:38.889Z,51.20
2019-02-19T17:51:08.204Z,52.00
2019-02-19T17:56:39.227Z,52.00
2019-02-19T18:02:09.775Z,52.30
2019-02-19T18:07:43.649Z,53.10
2019-02-19T18:12:55.805Z,53.30
2019-02-19T18:18:11.387Z,54.20
2019-02-19T18:23:17.351Z,55.40
2019-02-19T18:28:22.305Z,55.40
2019-02-19T18:33:27.290Z,55.90
2019-02-19T18:38:33.916Z,56.00
2019-02-19T18:43:42.491Z,57.10
2019-02-19T18:48:48.455Z,57.40
2019-02-19T18:53:53.441Z,58.00
2019-02-19T18:58:58.667Z,58.20
2019-02-19T19:04:03.435Z,58.20
2019-02-19T19:09:08.601Z,59.00
2019-02-19T19:14:14.621Z,58.60
2019-02-19T19:19:19.810Z,59.50
2019-02-19T19:24:25.003Z,59.70
2019-02-19T19:29:30.218Z,59.80
2019-02-19T19:34:34.509Z,60.00
2019-02-19T19:39:39.707Z,60.00
2019-02-19T19:44:45.141Z,61.30
2019-02-19T19:49:51.523Z,61.10
2019-02-19T19:54:56.731Z,60.70
2019-02-19T20:00:01.841Z,61.00
2019-02-19T20:05:11.289Z,61.00
2019-02-19T20:10:15.415Z,61.70
2019-02-19T20:15:18.787Z,62.60
2019-02-19T20:20:22.857Z,62.90
2019-02-19T20:25:26.637Z,62.60
2019-02-19T20:30:31.824Z,63.20
2019-02-19T20:35:37.228Z,62.60
2019-02-19T20:40:42.641Z,62.50
2019-02-19T20:45:48.003Z,62.30
2019-02-19T20:50:52.265Z,62.60
2019-02-19T20:55:56.667Z,63.40
2019-02-19T21:01:00.135Z,63.40
2019-02-19T21:06:03.754Z,63.00
2019-02-19T21:11:07.812Z,62.30
2019-02-19T21:16:13.040Z,63.60
2019-02-19T21:21:17.351Z,62.50
2019-02-19T21:26:21.697Z,63.60
2019-02-19T21:31:25.967Z,63.60
2019-02-19T21:36:30.265Z,64.20
2019-02-19T21:41:34.771Z,65.50
2019-02-19T21:46:41.089Z,65.30
2019-02-19T21:51:53.973Z,65.90
2019-02-19T21:56:54.396Z,64.50
2019-02-19T22:01:57.802Z,64.80
2019-02-19T22:07:02.202Z,64.30
2019-02-19T22:12:07.184Z,65.00
2019-02-19T22:17:11.279Z,64.20
2019-02-19T22:22:22.633Z,64.30
2019-02-19T22:27:27.921Z,63.70
2019-02-19T22:32:33.431Z,65.20
2019-02-19T22:37:39.409Z,65.60
2019-02-19T22:42:44.835Z,68.10
2019-02-19T22:47:53.412Z,68.20
2019-02-19T22:52:59.558Z,67.40
2019-02-19T22:58:04.848Z,67.70
2019-02-19T23:03:10.071Z,67.70
2019-02-19T23:08:16.006Z,66.90
2019-02-19T23:13:21.269Z,66.20
2019-02-19T23:18:26.421Z,66.00
2019-02-19T23:23:31.795Z,66.20
2019-02-19T23:28:37.246Z,66.30
2019-02-19T23:33:42.547Z,67.90
2019-02-19T23:38:48.117Z,67.00
2019-02-19T23:43:53.564Z,66.90
2019-02-19T23:48:58.615Z,67.40
2019-02-19T23:54:04.921Z,67.00
2019-02-19T23:59:10.621Z,68.00
